createdAt,value
2022-08-29T00:02:36.241Z,13.50
2022-08-29T00:05:39.833Z,13.48
2022-08-29T00:08:41.749Z,13.45
2022-08-29T00:11:43.455Z,13.40
2022-08-29T00:14:48.227Z,13.36
2022-08-29T00:17:49.805Z,13.32
2022-08-29T00:20:51.440Z,13.32
2022-08-29T00:23:53.101Z,13.30
2022-08-29T00:26:54.740Z,13.30
2022-08-29T00:29:56.350Z,13.29
2022-08-29T00:32:58.216Z,13.26
2022-08-29T00:35:59.804Z,13.23
2022-08-29T00:39:01.568Z,13.19
2022-08-29T00:42:03.763Z,13.13
2022-08-29T00:45:06.417Z,13.14
2022-08-29T00:48:09.474Z,13.11
2022-08-29T00:51:13.231Z,13.07
2022-08-29T00:54:15.022Z,13.06
2022-08-29T00:57:17.867Z,13.02
2022-08-29T01:00:19.497Z,13.01
2022-08-29T01:03:21.324Z,12.99
2022-08-29T01:06:23.967Z,13.04
2022-08-29T01:09:25.690Z,13.11
2022-08-29T01:12:27.581Z,13.14
2022-08-29T01:15:30.904Z,13.18
2022-08-29T01:18:33.423Z,13.23
2022-08-29T01:21:39.693Z,13.28
2022-08-29T01:24:42.726Z,13.39
2022-08-29T01:27:44.786Z,13.40
2022-08-29T01:31:03.101Z,13.35
2022-08-29T01:34:04.753Z,13.37
2022-08-29T01:37:07.030Z,13.49
2022-08-29T01:40:09.134Z,13.59
2022-08-29T01:43:10.823Z,13.58
2022-08-29T01:46:14.442Z,13.53
2022-08-29T01:49:16.649Z,13.49
2022-08-29T01:52:18.352Z,13.47
2022-08-29T01:55:20.245Z,13.46
2022-08-29T01:58:22.090Z,13.42
2022-08-29T02:01:25.504Z,13.47
2022-08-29T02:04:27.474Z,13.54
2022-08-29T02:07:29.550Z,13.63
2022-08-29T02:10:31.725Z,13.72
2022-08-29T02:13:33.482Z,13.77
2022-08-29T02:16:35.176Z,13.81
2022-08-29T02:19:38.065Z,13.81
2022-08-29T02:22:40.066Z,13.83
2022-08-29T02:25:41.657Z,13.79
2022-08-29T02:28:43.315Z,13.75
2022-08-29T02:31:44.967Z,13.74
2022-08-29T02:34:48.437Z,13.73
2022-08-29T02:37:50.378Z,13.73
2022-08-29T02:40:52.458Z,13.73
2022-08-29T02:43:54.543Z,13.70
2022-08-29T02:46:56.371Z,13.64
2022-08-29T02:49:58.625Z,13.63
2022-08-29T02:53:00.327Z,13.61
2022-08-29T02:56:02.238Z,13.61
2022-08-29T02:59:04.344Z,13.59
2022-08-29T03:02:06.100Z,13.60
2022-08-29T03:05:07.948Z,13.61
2022-08-29T03:08:11.553Z,13.63
2022-08-29T03:11:14.073Z,13.61
2022-08-29T03:14:17.618Z,13.61
2022-08-29T03:17:19.239Z,13.63
2022-08-29T03:20:21.555Z,13.62
2022-08-29T03:23:23.214Z,13.66
2022-08-29T03:26:25.509Z,13.63
2022-08-29T03:29:27.325Z,13.63
2022-08-29T03:32:29.686Z,13.64
2022-08-29T03:35:31.644Z,13.63
2022-08-29T03:38:33.359Z,13.61
2022-08-29T03:41:35.561Z,13.60
2022-08-29T03:44:37.586Z,13.61
2022-08-29T03:47:39.512Z,13.62
2022-08-29T03:50:41.114Z,13.62
2022-08-29T03:53:42.824Z,13.59
2022-08-29T03:56:44.431Z,13.54
2022-08-29T03:59:48.243Z,13.55
2022-08-29T04:02:55.878Z,13.53
2022-08-29T04:05:57.665Z,13.50
2022-08-29T04:08:59.332Z,13.51
2022-08-29T04:12:01.577Z,13.49
2022-08-29T04:15:03.999Z,13.45
2022-08-29T04:18:07.076Z,13.48
2022-08-29T04:21:08.977Z,13.48
2022-08-29T04:24:10.802Z,13.45
2022-08-29T04:27:12.401Z,13.39
2022-08-29T04:30:15.262Z,13.35
2022-08-29T04:33:22.550Z,13.31
2022-08-29T04:36:24.787Z,13.31
2022-08-29T04:39:26.412Z,13.27
2022-08-29T04:42:28.042Z,13.20
2022-08-29T04:45:29.726Z,13.15
2022-08-29T04:48:31.420Z,13.11
2022-08-29T04:51:34.600Z,13.03
2022-08-29T04:54:36.282Z,13.01
2022-08-29T04:57:38.284Z,12.96
2022-08-29T05:00:40.218Z,12.93
2022-08-29T05:03:42.053Z,12.91
2022-08-29T05:06:43.704Z,12.86
2022-08-29T05:09:45.315Z,12.81
2022-08-29T05:12:46.986Z,12.76
2022-08-29T05:15:49.199Z,12.69
2022-08-29T05:18:50.918Z,12.66
2022-08-29T05:21:57.915Z,12.66
2022-08-29T05:24:59.513Z,12.66
2022-08-29T05:28:01.127Z,12.67
2022-08-29T05:31:02.761Z,12.66
2022-08-29T05:34:16.218Z,12.63
2022-08-29T05:37:26.793Z,12.63
2022-08-29T05:40:28.638Z,12.66
2022-08-29T05:43:30.258Z,12.69
2022-08-29T05:46:31.913Z,12.72
2022-08-29T05:49:35.359Z,12.74
2022-08-29T05:52:36.918Z,12.77
2022-08-29T05:55:42.217Z,12.80
2022-08-29T05:58:43.882Z,12.86
2022-08-29T06:01:47.166Z,12.90
2022-08-29T06:04:48.839Z,12.96
2022-08-29T06:07:50.386Z,13.07
2022-08-29T06:10:51.982Z,13.17
2022-08-29T06:13:53.563Z,13.26
2022-08-29T06:16:55.370Z,13.32
2022-08-29T06:19:57.058Z,13.41
2022-08-29T06:22:58.680Z,13.48
2022-08-29T06:26:00.424Z,13.58
2022-08-29T06:29:06.405Z,13.68
2022-08-29T06:32:07.958Z,13.64
2022-08-29T06:35:09.622Z,13.72
2022-08-29T06:38:14.078Z,13.78
2022-08-29T06:41:16.318Z,13.86
2022-08-29T06:44:18.966Z,14.01
2022-08-29T06:47:20.593Z,14.12
2022-08-29T06:50:22.160Z,14.20
2022-08-29T06:53:31.813Z,14.23
2022-08-29T06:56:34.339Z,14.26
2022-08-29T06:59:38.594Z,14.36
2022-08-29T07:02:40.617Z,14.45
2022-08-29T07:05:42.570Z,14.51
2022-08-29T07:08:55.209Z,14.52
2022-08-29T07:11:58.198Z,14.59
2022-08-29T07:14:59.781Z,14.63
2022-08-29T07:18:01.382Z,14.67
2022-08-29T07:21:09.713Z,14.81
2022-08-29T07:24:11.338Z,14.89
2022-08-29T07:27:13.777Z,14.86
2022-08-29T07:30:16.601Z,14.86
2022-08-29T07:33:18.206Z,14.80
2022-08-29T07:36:19.782Z,14.92
2022-08-29T07:39:23.200Z,15.01
2022-08-29T07:42:24.769Z,14.98
2022-08-29T07:45:26.416Z,15.03
2022-08-29T07:48:28.053Z,15.03
2022-08-29T07:51:29.988Z,15.08
2022-08-29T07:54:31.648Z,15.13
2022-08-29T07:57:33.596Z,15.10
2022-08-29T08:00:41.310Z,15.13
2022-08-29T08:03:43.080Z,15.06
2022-08-29T08:06:49.814Z,15.08
2022-08-29T08:09:51.379Z,15.20
2022-08-29T08:12:53.028Z,15.32
2022-08-29T08:15:55.574Z,15.38
2022-08-29T08:18:57.418Z,15.44
2022-08-29T08:21:59.489Z,15.56
2022-08-29T08:25:01.246Z,15.63
2022-08-29T08:28:03.624Z,15.63
2022-08-29T08:31:06.799Z,15.68
2022-08-29T08:34:08.627Z,15.77
2022-08-29T08:37:10.290Z,15.78
2022-08-29T08:40:21.308Z,15.86
2022-08-29T08:43:26.995Z,15.80
2022-08-29T08:46:31.227Z,15.79
2022-08-29T08:49:52.235Z,15.93
2022-08-29T08:53:04.499Z,15.93
2022-08-29T08:56:12.897Z,16.04
2022-08-29T08:59:16.320Z,16.12
2022-08-29T09:02:33.851Z,16.13
2022-08-29T09:05:57.605Z,16.04
2022-08-29T09:09:38.503Z,16.04
2022-08-29T09:12:58.854Z,16.02
2022-08-29T09:16:01.034Z,15.95
2022-08-29T09:19:05.021Z,15.84
2022-08-29T09:22:11.457Z,15.76
2022-08-29T09:25:15.472Z,15.76
2022-08-29T09:28:17.261Z,15.80
2022-08-29T09:31:21.623Z,15.74
2022-08-29T09:34:57.084Z,15.75
2022-08-29T09:37:56.143Z,15.53
2022-08-29T09:40:59.196Z,15.48
2022-08-29T09:44:00.858Z,15.37
2022-08-29T09:47:37.053Z,15.26
2022-08-29T09:50:38.679Z,15.15
2022-08-29T09:53:40.466Z,15.18
2022-08-29T09:56:50.649Z,15.20
2022-08-29T10:00:07.840Z,15.29
2022-08-29T10:03:11.584Z,15.50
2022-08-29T10:06:15.446Z,15.65
2022-08-29T10:09:27.484Z,15.80
2022-08-29T10:12:38.367Z,15.82
2022-08-29T10:15:51.173Z,15.76
2022-08-29T10:18:58.806Z,15.76
2022-08-29T10:22:02.977Z,15.64
2022-08-29T10:25:10.867Z,15.72
2022-08-29T10:28:19.390Z,15.51
2022-08-29T10:31:26.250Z,15.34
2022-08-29T10:34:31.785Z,15.31
2022-08-29T10:37:52.425Z,15.36
2022-08-29T10:41:03.192Z,15.50
2022-08-29T10:44:04.978Z,15.75
2022-08-29T10:47:39.174Z,15.81
2022-08-29T10:50:46.057Z,15.32
2022-08-29T10:53:51.109Z,14.98
2022-08-29T10:56:52.810Z,14.98
2022-08-29T11:00:20.720Z,15.03
2022-08-29T11:03:41.318Z,15.20
2022-08-29T11:07:03.190Z,15.39
2022-08-29T11:10:11.008Z,15.56
2022-08-29T11:13:18.201Z,15.62
2022-08-29T11:16:24.701Z,15.70
2022-08-29T11:19:28.743Z,16.11
2022-08-29T11:22:39.754Z,16.43
2022-08-29T11:25:42.034Z,16.55
2022-08-29T11:28:46.712Z,16.75
2022-08-29T11:32:00.031Z,17.12
2022-08-29T11:35:22.666Z,17.27
2022-08-29T11:38:24.297Z,16.98
2022-08-29T11:41:27.744Z,16.80
2022-08-29T11:44:30.046Z,16.48
2022-08-29T11:47:40.841Z,16.46
2022-08-29T11:50:43.364Z,16.48
2022-08-29T11:53:44.926Z,16.44
2022-08-29T11:56:46.538Z,16.68
2022-08-29T11:59:51.323Z,17.18
2022-08-29T12:02:52.989Z,17.56
2022-08-29T12:05:59.642Z,17.70
2022-08-29T12:09:04.780Z,17.57
2022-08-29T12:12:08.612Z,17.58
2022-08-29T12:15:29.043Z,17.49
2022-08-29T12:18:34.643Z,17.49
2022-08-29T12:21:38.091Z,17.51
2022-08-29T12:24:41.825Z,17.64
2022-08-29T12:28:01.221Z,17.50
2022-08-29T12:31:11.999Z,17.48
2022-08-29T12:34:17.281Z,17.52
2022-08-29T12:37:28.685Z,17.28
2022-08-29T12:40:36.708Z,17.19
2022-08-29T12:43:42.786Z,16.97
2022-08-29T12:46:45.119Z,16.98
2022-08-29T12:49:51.570Z,17.02
2022-08-29T12:52:59.273Z,17.05
2022-08-29T12:56:03.957Z,17.24
2022-08-29T12:59:05.667Z,17.37
2022-08-29T13:02:07.585Z,17.37
2022-08-29T13:05:19.579Z,17.39
2022-08-29T13:08:29.453Z,17.40
2022-08-29T13:11:31.374Z,17.34
2022-08-29T13:14:35.108Z,17.39
2022-08-29T13:17:38.008Z,17.36
2022-08-29T13:20:41.276Z,17.22
2022-08-29T13:23:45.910Z,17.29
2022-08-29T13:27:04.247Z,17.17
2022-08-29T13:30:08.506Z,16.98
2022-08-29T13:33:27.125Z,16.86
2022-08-29T13:36:38.614Z,16.75
2022-08-29T13:39:42.054Z,16.90
2022-08-29T13:42:44.806Z,17.06
2022-08-29T13:45:46.413Z,17.15
2022-08-29T13:48:48.024Z,17.19
2022-08-29T13:51:49.841Z,17.27
2022-08-29T13:54:51.422Z,18.35
2022-08-29T13:57:53.819Z,18.64
2022-08-29T14:00:56.090Z,18.32
2022-08-29T14:04:01.285Z,17.86
2022-08-29T14:07:12.259Z,17.57
2022-08-29T14:10:15.031Z,17.39
2022-08-29T14:13:16.812Z,17.41
2022-08-29T14:16:18.511Z,17.47
2022-08-29T14:19:26.935Z,17.23
2022-08-29T14:22:28.622Z,17.24
2022-08-29T14:25:30.281Z,17.15
2022-08-29T14:28:31.918Z,17.03
2022-08-29T14:31:35.284Z,17.01
2022-08-29T14:34:37.979Z,16.96
2022-08-29T14:37:40.949Z,16.92
2022-08-29T14:40:42.985Z,16.67
2022-08-29T14:43:44.765Z,16.62
2022-08-29T14:46:46.452Z,16.60
2022-08-29T14:49:48.312Z,16.59
2022-08-29T14:52:50.131Z,16.59
2022-08-29T14:55:51.742Z,16.60
2022-08-29T14:58:53.865Z,16.52
2022-08-29T15:01:55.726Z,16.48
2022-08-29T15:04:58.957Z,16.52
2022-08-29T15:08:06.043Z,16.45
2022-08-29T15:11:16.913Z,16.37
2022-08-29T15:14:19.047Z,16.48
2022-08-29T15:17:20.725Z,16.72
2022-08-29T15:20:40.040Z,16.75
2022-08-29T15:23:42.385Z,16.94
2022-08-29T15:26:44.981Z,17.11
2022-08-29T15:29:46.592Z,17.26
2022-08-29T15:32:49.286Z,17.21
2022-08-29T15:35:51.206Z,17.15
2022-08-29T15:38:52.849Z,17.19
2022-08-29T15:41:55.328Z,17.38
2022-08-29T15:44:58.581Z,17.39
2022-08-29T15:48:00.474Z,17.02
2022-08-29T15:51:03.217Z,16.93
2022-08-29T15:54:05.662Z,16.84
2022-08-29T15:57:07.971Z,17.07
2022-08-29T16:00:11.794Z,18.31
2022-08-29T16:03:17.993Z,17.94
2022-08-29T16:06:19.649Z,17.53
2022-08-29T16:09:21.409Z,17.36
2022-08-29T16:12:23.077Z,17.37
2022-08-29T16:15:24.799Z,18.14
2022-08-29T16:18:26.555Z,17.94
2022-08-29T16:21:28.161Z,17.81
2022-08-29T16:24:31.064Z,17.98
2022-08-29T16:27:33.157Z,17.61
2022-08-29T16:30:34.869Z,17.21
2022-08-29T16:33:40.446Z,16.85
2022-08-29T16:36:43.024Z,16.66
2022-08-29T16:39:44.965Z,16.45
2022-08-29T16:42:55.655Z,16.18
2022-08-29T16:45:57.537Z,16.00
2022-08-29T16:49:24.857Z,15.82
2022-08-29T16:52:26.923Z,15.73
2022-08-29T16:55:29.781Z,15.70
2022-08-29T16:58:55.265Z,15.54
2022-08-29T17:01:56.956Z,15.44
2022-08-29T17:04:58.969Z,15.32
2022-08-29T17:08:01.274Z,15.16
2022-08-29T17:11:03.177Z,15.19
2022-08-29T17:14:05.250Z,15.32
2022-08-29T17:17:07.207Z,15.38
2022-08-29T17:20:10.862Z,15.42
2022-08-29T17:23:13.123Z,15.24
2022-08-29T17:26:16.584Z,15.19
2022-08-29T17:29:18.187Z,15.07
2022-08-29T17:32:19.847Z,15.11
2022-08-29T17:35:22.072Z,15.04
2022-08-29T17:38:23.814Z,15.01
2022-08-29T17:41:28.143Z,15.09
2022-08-29T17:44:31.817Z,15.13
2022-08-29T17:47:33.485Z,15.22
2022-08-29T17:50:35.081Z,15.17
2022-08-29T17:53:36.669Z,15.10
2022-08-29T17:56:44.324Z,15.12
2022-08-29T17:59:46.305Z,15.09
2022-08-29T18:02:47.967Z,15.09
2022-08-29T18:05:49.659Z,14.95
2022-08-29T18:08:51.359Z,14.85
2022-08-29T18:11:53.373Z,14.77
2022-08-29T18:14:55.397Z,14.83
2022-08-29T18:17:57.001Z,14.91
2022-08-29T18:20:58.607Z,14.89
2022-08-29T18:24:00.294Z,15.04
2022-08-29T18:27:02.020Z,15.22
2022-08-29T18:30:04.275Z,15.21
2022-08-29T18:33:07.108Z,15.13
2022-08-29T18:36:09.094Z,15.04
2022-08-29T18:39:10.758Z,15.01
2022-08-29T18:42:30.598Z,15.02
2022-08-29T18:45:34.094Z,14.96
2022-08-29T18:48:35.985Z,14.88
2022-08-29T18:51:37.558Z,14.85
2022-08-29T18:54:39.279Z,14.80
2022-08-29T18:57:40.862Z,14.80
2022-08-29T19:00:42.861Z,14.79
2022-08-29T19:03:44.525Z,14.74
2022-08-29T19:06:47.177Z,14.75
2022-08-29T19:10:04.787Z,14.71
2022-08-29T19:13:09.918Z,14.78
2022-08-29T19:16:11.754Z,14.78
2022-08-29T19:19:13.737Z,14.73
2022-08-29T19:22:15.997Z,14.64
2022-08-29T19:25:18.409Z,14.61
2022-08-29T19:28:20.770Z,14.60
2022-08-29T19:31:22.796Z,14.60
2022-08-29T19:34:24.434Z,14.61
2022-08-29T19:37:26.806Z,14.67
2022-08-29T19:40:29.380Z,14.57
2022-08-29T19:43:33.518Z,14.56
2022-08-29T19:46:36.094Z,14.48
2022-08-29T19:49:40.993Z,14.45
2022-08-29T19:52:45.326Z,14.43
2022-08-29T19:55:47.002Z,14.40
2022-08-29T19:58:49.427Z,14.45
2022-08-29T20:01:51.348Z,14.40
2022-08-29T20:04:53.254Z,14.44
2022-08-29T20:07:54.926Z,14.42
2022-08-29T20:10:56.513Z,14.33
2022-08-29T20:13:58.340Z,14.28
2022-08-29T20:17:00.617Z,14.29
2022-08-29T20:20:04.250Z,14.27
2022-08-29T20:23:06.742Z,14.28
2022-08-29T20:26:08.367Z,14.33
2022-08-29T20:29:10.576Z,14.27
2022-08-29T20:32:12.286Z,14.19
2022-08-29T20:35:13.915Z,14.17
2022-08-29T20:38:15.666Z,14.13
2022-08-29T20:41:21.201Z,14.17
2022-08-29T20:44:23.902Z,14.05
2022-08-29T20:47:25.818Z,13.99
2022-08-29T20:53:34.880Z,13.87
2022-08-29T20:56:36.497Z,13.78
2022-08-29T20:59:39.654Z,13.68
2022-08-29T21:02:59.996Z,13.70
2022-08-29T21:06:01.574Z,13.66
2022-08-29T21:09:03.534Z,13.70
2022-08-29T21:12:05.154Z,13.73
2022-08-29T21:15:07.753Z,13.70
2022-08-29T21:18:10.121Z,13.64
2022-08-29T21:21:14.650Z,13.66
2022-08-29T21:24:16.201Z,13.78
2022-08-29T21:27:18.126Z,13.81
2022-08-29T21:30:19.890Z,13.81
2022-08-29T21:33:22.047Z,13.83
2022-08-29T21:36:25.777Z,13.85
2022-08-29T21:39:28.500Z,13.76
2022-08-29T21:42:30.699Z,13.75
2022-08-29T21:45:33.464Z,13.71
2022-08-29T21:48:35.057Z,13.61
2022-08-29T21:51:36.787Z,13.59
2022-08-29T21:54:38.368Z,13.63
2022-08-29T21:57:52.027Z,13.63
2022-08-29T22:00:53.638Z,13.78
2022-08-29T22:03:56.113Z,13.78
2022-08-29T22:06:58.250Z,13.63
2022-08-29T22:10:00.973Z,13.43
2022-08-29T22:13:03.278Z,13.29
2022-08-29T22:16:23.537Z,13.17
2022-08-29T22:19:25.133Z,13.12
2022-08-29T22:22:26.713Z,13.04
2022-08-29T22:25:28.315Z,13.03
2022-08-29T22:28:29.906Z,12.99
2022-08-29T22:31:32.143Z,12.98
2022-08-29T22:34:33.764Z,13.02
2022-08-29T22:37:36.835Z,13.05
2022-08-29T22:40:40.419Z,13.09
2022-08-29T22:43:42.560Z,13.03
2022-08-29T22:46:44.799Z,13.07
2022-08-29T22:49:46.543Z,13.15
2022-08-29T22:52:48.450Z,13.13
2022-08-29T22:55:50.049Z,13.15
2022-08-29T22:58:51.606Z,13.14
2022-08-29T23:01:53.800Z,13.13
2022-08-29T23:04:55.749Z,13.16
2022-08-29T23:07:57.352Z,13.11
2022-08-29T23:10:58.965Z,13.11
2022-08-29T23:14:00.580Z,13.02
2022-08-29T23:17:04.790Z,12.96
2022-08-29T23:20:07.085Z,12.87
2022-08-29T23:23:10.634Z,12.80
2022-08-29T23:26:12.273Z,12.73
2022-08-29T23:29:13.926Z,12.69
2022-08-29T23:32:15.505Z,12.72
2022-08-29T23:35:17.104Z,12.67
2022-08-29T23:38:19.036Z,12.60
2022-08-29T23:41:20.634Z,12.52
2022-08-29T23:44:22.213Z,12.58
2022-08-29T23:47:23.788Z,12.60
2022-08-29T23:50:25.386Z,12.59
2022-08-29T23:53:26.971Z,12.61
2022-08-29T23:56:28.582Z,12.65
2022-08-29T23:59:48.594Z,12.66
